Time;durP1;ratioP1;P1;durP2;ratioP2;P2;SDS_P1;SDS_P2;PMS_P1;PMS_P2;Temp;Humidity;BMP_temperature;BMP_pressure;BME280_temperature;BME280_humidity;BME280_pressure;Samples;Min_cycle;Max_cycle;Signal;HPM_P1;HPM_P2
2021/09/17 00:01:24;;;;;;;4.00;2.17;;;18.30;99.90;;;;;;5013474;28;20519;-51
2021/09/17 00:03:50;;;;;;;4.47;2.30;;;18.30;99.90;;;;;;5012501;28;20448;-51
2021/09/17 00:06:17;;;;;;;4.33;2.47;;;18.30;99.90;;;;;;5013854;28;20444;-51
2021/09/17 00:08:44;;;;;;;8.13;2.97;;;18.30;99.90;;;;;;5013302;28;20459;-51
2021/09/17 00:11:12;;;;;;;5.70;2.50;;;18.30;99.90;;;;;;5013733;28;20868;-51
2021/09/17 00:13:39;;;;;;;4.03;2.20;;;18.30;99.90;;;;;;5012304;28;20456;-51
2021/09/17 00:16:08;;;;;;;4.50;2.37;;;18.30;99.90;;;;;;5013613;28;20487;-51
2021/09/17 00:18:39;;;;;;;4.00;2.37;;;18.30;99.90;;;;;;5013226;28;20547;-51
2021/09/17 00:21:08;;;;;;;6.33;2.60;;;18.30;99.90;;;;;;5011472;28;20478;-51
2021/09/17 00:23:35;;;;;;;6.47;2.43;;;18.30;99.90;;;;;;5013510;28;20427;-51
2021/09/17 00:26:01;;;;;;;8.50;3.13;;;18.30;99.90;;;;;;5012327;28;20795;-51
2021/09/17 00:28:32;;;;;;;2.80;2.60;;;18.20;99.90;;;;;;5013008;28;20466;-50
2021/09/17 00:30:59;;;;;;;5.70;2.90;;;18.20;99.90;;;;;;5013297;28;20518;-51
2021/09/17 00:33:25;;;;;;;4.70;2.80;;;18.20;99.90;;;;;;5013273;28;20526;-51
2021/09/17 00:35:52;;;;;;;5.60;3.40;;;18.20;99.90;;;;;;5013381;28;20583;-50
2021/09/17 00:38:19;;;;;;;4.30;2.60;;;18.20;99.90;;;;;;5012833;28;20549;-51
2021/09/17 00:40:46;;;;;;;5.40;2.93;;;18.20;99.90;;;;;;5013131;28;20550;-51
2021/09/17 00:43:16;;;;;;;6.03;2.93;;;18.20;99.90;;;;;;5013150;28;20447;-51
2021/09/17 00:45:46;;;;;;;3.10;2.80;;;18.20;99.90;;;;;;5013171;28;20436;-51
2021/09/17 00:48:13;;;;;;;11.50;3.27;;;18.20;99.90;;;;;;5013125;28;20557;-50
2021/09/17 00:50:40;;;;;;;5.27;2.83;;;18.10;99.90;;;;;;5011668;28;20956;-51
2021/09/17 00:53:07;;;;;;;8.00;2.70;;;18.10;99.90;;;;;;5012921;28;20450;-51
2021/09/17 00:55:34;;;;;;;4.40;2.80;;;18.10;99.90;;;;;;5013005;28;20538;-50
2021/09/17 00:58:03;;;;;;;4.10;2.30;;;18.10;99.90;;;;;;5012540;28;20478;-50
2021/09/17 01:00:30;;;;;;;8.03;3.03;;;18.10;99.90;;;;;;5011499;28;20574;-51
2021/09/17 01:02:58;;;;;;;7.07;3.33;;;18.10;99.90;;;;;;5012821;28;20435;-50
2021/09/17 01:05:25;;;;;;;7.33;3.27;;;18.10;99.90;;;;;;5012579;28;20949;-51
2021/09/17 01:07:53;;;;;;;4.67;2.60;;;18.10;99.90;;;;;;5012272;28;20983;-50
2021/09/17 01:10:20;;;;;;;3.70;2.63;;;18.10;99.90;;;;;;5012714;28;20885;-51
2021/09/17 01:12:47;;;;;;;3.70;2.60;;;18.10;99.90;;;;;;5011194;28;20902;-51
2021/09/17 01:15:14;;;;;;;5.50;2.40;;;18.10;99.90;;;;;;5012600;28;20447;-50
2021/09/17 01:17:43;;;;;;;5.43;2.80;;;18.10;99.90;;;;;;5012234;28;20459;-51
2021/09/17 01:20:14;;;;;;;4.83;2.70;;;18.10;99.90;;;;;;5012509;28;21007;-51
2021/09/17 01:22:42;;;;;;;5.10;3.00;;;18.10;99.90;;;;;;5012665;28;20432;-51
2021/09/17 01:25:14;;;;;;;4.63;2.70;;;18.10;99.90;;;;;;5012563;28;20445;-51
2021/09/17 01:27:42;;;;;;;3.70;2.50;;;18.10;99.90;;;;;;5010654;28;20998;-51
2021/09/17 01:30:10;;;;;;;4.70;2.53;;;18.10;99.90;;;;;;5012190;28;20440;-51
2021/09/17 01:32:41;;;;;;;11.53;2.87;;;18.10;99.90;;;;;;5012085;28;20432;-51
2021/09/17 01:35:11;;;;;;;3.97;2.60;;;18.00;99.90;;;;;;5012304;28;20462;-51
2021/09/17 01:37:38;;;;;;;4.37;3.13;;;18.00;99.90;;;;;;5011971;28;20454;-51
2021/09/17 01:40:08;;;;;;;8.30;3.03;;;18.00;99.90;;;;;;5012082;28;20440;-51
2021/09/17 01:42:34;;;;;;;4.93;2.90;;;18.00;99.90;;;;;;5011608;28;20550;-50
2021/09/17 01:45:02;;;;;;;3.83;2.30;;;18.00;99.90;;;;;;5011165;28;20474;-51
2021/09/17 01:47:31;;;;;;;5.40;2.50;;;18.00;99.90;;;;;;5011937;28;20639;-50
2021/09/17 01:49:58;;;;;;;3.73;2.57;;;18.00;99.90;;;;;;5011772;28;20519;-51
2021/09/17 01:52:25;;;;;;;3.10;2.00;;;18.00;99.90;;;;;;5011901;28;20494;-50
2021/09/17 01:54:51;;;;;;;6.03;2.33;;;18.00;99.90;;;;;;5012264;28;20823;-50
2021/09/17 01:57:19;;;;;;;4.00;2.30;;;18.00;99.90;;;;;;5011862;28;20475;-50
2021/09/17 01:59:46;;;;;;;3.27;2.70;;;17.90;99.90;;;;;;5010172;28;20491;-50
2021/09/17 02:02:13;;;;;;;7.53;2.73;;;17.90;99.90;;;;;;5010526;28;20984;-50
2021/09/17 02:04:39;;;;;;;3.37;2.30;;;17.90;99.90;;;;;;5011898;28;20459;-51
2021/09/17 02:07:06;;;;;;;4.90;2.77;;;17.90;99.90;;;;;;5011733;28;20461;-50
2021/09/17 02:09:33;;;;;;;4.20;1.80;;;17.90;99.90;;;;;;5011524;28;20454;-50
2021/09/17 02:11:59;;;;;;;4.73;2.37;;;17.80;99.90;;;;;;5011837;28;20509;-50
2021/09/17 02:14:27;;;;;;;5.90;2.20;;;17.80;99.90;;;;;;5011835;28;20541;-51
2021/09/17 02:16:54;;;;;;;6.43;3.00;;;17.90;99.90;;;;;;5010420;28;20467;-50
2021/09/17 02:19:21;;;;;;;6.07;2.40;;;17.90;99.90;;;;;;5011216;28;20509;-51
2021/09/17 02:21:50;;;;;;;3.60;2.30;;;17.80;99.90;;;;;;5010295;28;20476;-50
2021/09/17 02:24:16;;;;;;;3.40;2.10;;;17.80;99.90;;;;;;5011611;28;20443;-50
2021/09/17 02:26:43;;;;;;;4.17;2.10;;;17.90;99.90;;;;;;5011666;28;20437;-51
2021/09/17 02:29:10;;;;;;;5.63;2.37;;;17.90;99.90;;;;;;5011486;28;20454;-51
2021/09/17 02:31:38;;;;;;;3.27;2.90;;;18.00;99.90;;;;;;5011471;28;20435;-50
2021/09/17 02:34:05;;;;;;;6.13;2.77;;;17.80;99.90;;;;;;5011522;28;20521;-50
2021/09/17 02:36:33;;;;;;;4.00;2.10;;;17.80;99.90;;;;;;5010272;28;20503;-50
2021/09/17 02:38:59;;;;;;;4.53;2.87;;;17.80;99.90;;;;;;5011121;28;20876;-50
2021/09/17 02:41:26;;;;;;;5.00;3.17;;;17.80;99.90;;;;;;5011339;28;20474;-50
2021/09/17 02:43:53;;;;;;;6.33;3.47;;;17.80;99.90;;;;;;5012098;28;20438;-51
2021/09/17 02:46:20;;;;;;;4.20;2.83;;;17.80;99.90;;;;;;5015337;28;20438;-51
2021/09/17 02:48:48;;;;;;;6.60;3.00;;;17.80;99.90;;;;;;5014783;28;20540;-50
2021/09/17 02:51:15;;;;;;;8.20;2.90;;;17.80;99.90;;;;;;5013934;28;20448;-50
2021/09/17 02:53:41;;;;;;;5.13;2.33;;;17.80;99.90;;;;;;5013928;28;21058;-50
2021/09/17 02:56:08;;;;;;;4.40;2.60;;;17.70;99.90;;;;;;5015085;28;20521;-50
2021/09/17 02:58:36;;;;;;;7.43;2.80;;;17.70;99.90;;;;;;5014640;28;20546;-50
2021/09/17 03:01:03;;;;;;;3.50;2.43;;;17.70;99.90;;;;;;5014906;28;20943;-50
2021/09/17 03:03:30;;;;;;;5.07;2.50;;;17.70;99.90;;;;;;5014917;28;20435;-50
2021/09/17 03:05:58;;;;;;;5.40;2.33;;;17.70;99.90;;;;;;5014870;28;20999;-51
2021/09/17 03:08:25;;;;;;;4.93;2.57;;;17.70;99.90;;;;;;5014549;28;20466;-51
2021/09/17 03:10:56;;;;;;;4.63;2.50;;;17.70;99.90;;;;;;5014938;28;20438;-51
2021/09/17 03:13:23;;;;;;;3.20;2.40;;;17.70;99.90;;;;;;5014937;28;20427;-50
2021/09/17 03:15:49;;;;;;;8.60;2.40;;;17.70;99.90;;;;;;5014669;28;20441;-51
2021/09/17 03:18:16;;;;;;;8.07;2.47;;;17.70;99.90;;;;;;5014350;28;20541;-50
2021/09/17 03:20:44;;;;;;;7.90;2.90;;;17.70;99.90;;;;;;5014635;28;20443;-50
2021/09/17 03:23:12;;;;;;;4.33;2.60;;;17.60;99.90;;;;;;5013283;28;20482;-51
2021/09/17 03:25:39;;;;;;;6.10;3.10;;;17.60;99.90;;;;;;5014695;28;20525;-50
2021/09/17 03:28:06;;;;;;;3.60;2.67;;;17.60;99.90;;;;;;5012980;28;20568;-50
2021/09/17 03:30:33;;;;;;;7.73;2.80;;;17.60;99.90;;;;;;5013135;28;20512;-50
2021/09/17 03:33:03;;;;;;;7.10;3.50;;;17.60;99.90;;;;;;5014342;28;20803;-51
2021/09/17 03:35:29;;;;;;;5.57;3.43;;;17.60;99.90;;;;;;5014236;28;20461;-51
2021/09/17 03:37:56;;;;;;;4.10;2.73;;;17.50;99.90;;;;;;5014099;28;20551;-50
2021/09/17 03:40:24;;;;;;;7.27;3.17;;;17.50;99.90;;;;;;5013223;28;20443;-50
2021/09/17 03:42:51;;;;;;;8.30;4.40;;;17.50;99.90;;;;;;5014338;28;20567;-51
2021/09/17 03:45:17;;;;;;;6.67;3.33;;;17.50;99.90;;;;;;5014404;28;20521;-51
2021/09/17 03:47:45;;;;;;;4.80;2.60;;;17.50;99.90;;;;;;5013825;28;20475;-50
2021/09/17 03:50:11;;;;;;;5.67;3.20;;;17.50;99.90;;;;;;5014313;28;20982;-51
2021/09/17 03:52:38;;;;;;;5.00;2.67;;;17.50;99.90;;;;;;5014133;28;20438;-50
2021/09/17 03:55:06;;;;;;;4.53;2.90;;;17.40;99.90;;;;;;5013431;28;20530;-51
2021/09/17 03:57:34;;;;;;;6.03;2.90;;;17.40;99.90;;;;;;5013321;28;20459;-51
2021/09/17 04:00:01;;;;;;;5.27;2.80;;;17.40;99.90;;;;;;5013864;28;20442;-50
2021/09/17 04:02:28;;;;;;;3.27;2.50;;;17.40;99.90;;;;;;5013807;28;21050;-51
2021/09/17 04:04:57;;;;;;;10.20;2.73;;;17.40;99.90;;;;;;5013912;28;20445;-51
2021/09/17 04:07:23;;;;;;;3.80;2.50;;;17.40;99.90;;;;;;5013644;28;20531;-50
2021/09/17 04:09:50;;;;;;;7.23;2.57;;;17.40;99.90;;;;;;5014738;28;20546;-52
2021/09/17 04:12:17;;;;;;;4.10;2.43;;;17.40;99.90;;;;;;5014660;28;20454;-51
2021/09/17 04:14:46;;;;;;;4.93;2.70;;;17.40;99.90;;;;;;5013598;28;20500;-50
2021/09/17 04:17:12;;;;;;;4.20;2.90;;;17.40;99.90;;;;;;5013526;28;20541;-50
2021/09/17 04:19:39;;;;;;;4.23;2.40;;;17.40;99.90;;;;;;4995686;28;20449;-52
2021/09/17 04:22:06;;;;;;;4.13;2.90;;;17.40;99.90;;;;;;5013503;28;20473;-52
2021/09/17 04:24:33;;;;;;;4.17;2.27;;;17.30;99.90;;;;;;5011893;28;20943;-52
2021/09/17 04:27:00;;;;;;;4.40;2.50;;;17.30;99.90;;;;;;5013363;28;20521;-52
2021/09/17 04:29:26;;;;;;;4.93;2.00;;;17.30;99.90;;;;;;5011579;28;21039;-53
2021/09/17 04:31:54;;;;;;;8.80;2.87;;;17.20;99.90;;;;;;5011619;28;20825;-52
2021/09/17 04:34:21;;;;;;;5.87;2.13;;;17.20;99.90;;;;;;5011675;28;20536;-52
2021/09/17 04:36:48;;;;;;;3.63;2.20;;;17.10;99.90;;;;;;5011813;28;20546;-51
2021/09/17 04:39:14;;;;;;;4.13;2.60;;;17.10;99.90;;;;;;5012699;28;20483;-51
2021/09/17 04:41:41;;;;;;;5.13;2.27;;;17.10;99.90;;;;;;5011961;28;20553;-52
2021/09/17 04:44:08;;;;;;;4.20;2.00;;;17.10;99.90;;;;;;5013056;28;20530;-52
2021/09/17 04:46:35;;;;;;;2.83;2.30;;;17.10;99.90;;;;;;5012963;28;20442;-52
2021/09/17 04:49:03;;;;;;;3.73;1.80;;;17.10;99.90;;;;;;5012435;28;21053;-52
2021/09/17 04:51:30;;;;;;;3.13;1.73;;;17.10;99.90;;;;;;5012993;28;20429;-52
2021/09/17 04:53:57;;;;;;;3.73;1.80;;;17.10;99.90;;;;;;5011350;28;20455;-52
2021/09/17 04:56:24;;;;;;;2.33;1.60;;;17.10;99.90;;;;;;5012660;28;20489;-52
2021/09/17 04:58:51;;;;;;;4.20;2.07;;;17.10;99.90;;;;;;5011874;28;20543;-52
2021/09/17 05:01:18;;;;;;;5.83;1.73;;;17.10;99.90;;;;;;5012641;28;20438;-52
2021/09/17 05:03:45;;;;;;;7.70;3.40;;;17.00;99.90;;;;;;5011082;28;20505;-51
2021/09/17 05:06:13;;;;;;;2.60;1.67;;;17.00;99.90;;;;;;5012431;28;20483;-52
2021/09/17 05:08:39;;;;;;;4.07;2.17;;;17.00;99.90;;;;;;5010032;28;20477;-52
2021/09/17 05:11:07;;;;;;;4.23;2.27;;;17.10;99.90;;;;;;5011018;28;20507;-51
2021/09/17 05:13:34;;;;;;;4.53;2.20;;;17.10;99.90;;;;;;5012096;28;20444;-52
2021/09/17 05:16:01;;;;;;;4.33;2.17;;;17.10;99.90;;;;;;5011964;28;20803;-52
2021/09/17 05:18:28;;;;;;;4.90;1.93;;;17.10;99.90;;;;;;5011759;28;20556;-52
2021/09/17 05:20:57;;;;;;;6.43;2.60;;;17.10;99.90;;;;;;5010859;28;20441;-51
2021/09/17 05:23:25;;;;;;;3.27;1.93;;;17.10;99.90;;;;;;5010597;28;20478;-51
2021/09/17 05:25:52;;;;;;;3.63;1.50;;;17.10;99.90;;;;;;5011990;28;20950;-52
2021/09/17 05:28:18;;;;;;;2.80;1.60;;;17.10;99.90;;;;;;5010526;28;21025;-52
2021/09/17 05:30:45;;;;;;;7.07;2.60;;;17.00;99.90;;;;;;5011918;28;20430;-52
2021/09/17 05:33:12;;;;;;;4.20;2.17;;;17.00;99.90;;;;;;5011557;28;20538;-52
2021/09/17 05:35:38;;;;;;;2.90;1.70;;;17.00;99.90;;;;;;5011312;28;20449;-52
2021/09/17 05:38:05;;;;;;;3.57;1.53;;;16.90;99.90;;;;;;5011153;28;20510;-51
2021/09/17 05:40:33;;;;;;;4.57;1.67;;;17.10;99.90;;;;;;5009712;28;20438;-51
2021/09/17 05:43:00;;;;;;;5.33;1.30;;;17.10;99.90;;;;;;5011427;28;20977;-51
2021/09/17 05:45:27;;;;;;;3.73;1.37;;;17.00;99.90;;;;;;5010490;28;20443;-53
2021/09/17 05:47:53;;;;;;;2.77;2.00;;;17.00;99.90;;;;;;5010463;28;20563;-52
2021/09/17 05:50:20;;;;;;;4.93;2.30;;;17.00;99.90;;;;;;5011611;28;20484;-52
2021/09/17 05:52:47;;;;;;;2.00;1.67;;;17.00;99.90;;;;;;5011562;28;20442;-52
2021/09/17 05:55:13;;;;;;;4.23;2.30;;;17.00;99.90;;;;;;5011339;28;20853;-51
2021/09/17 05:57:42;;;;;;;3.70;1.53;;;16.90;99.90;;;;;;5011170;28;20448;-51
2021/09/17 06:00:11;;;;;;;4.70;1.37;;;16.80;99.90;;;;;;5011685;28;20466;-53
2021/09/17 06:02:41;;;;;;;1.40;0.80;;;16.70;99.90;;;;;;5011324;28;20488;-52
2021/09/17 06:05:09;;;;;;;2.00;1.13;;;16.60;99.90;;;;;;5011016;28;20474;-52
2021/09/17 06:07:41;;;;;;;2.73;1.07;;;16.60;99.90;;;;;;5011489;28;20510;-52
2021/09/17 06:10:09;;;;;;;1.80;1.10;;;16.60;99.90;;;;;;5010704;28;20444;-52
2021/09/17 06:12:35;;;;;;;1.57;0.83;;;16.60;99.90;;;;;;5009553;28;20510;-52
2021/09/17 06:15:04;;;;;;;4.57;2.73;;;16.60;99.90;;;;;;5009508;28;20454;-50
2021/09/17 06:17:31;;;;;;;4.23;1.90;;;16.70;99.90;;;;;;5011056;28;20970;-52
2021/09/17 06:19:58;;;;;;;5.87;2.27;;;16.70;99.90;;;;;;5012943;28;20602;-52
2021/09/17 06:22:24;;;;;;;3.73;1.27;;;16.80;99.90;;;;;;5015143;28;20531;-52
2021/09/17 06:24:51;;;;;;;2.10;1.10;;;16.70;99.90;;;;;;5015281;28;20519;-53
2021/09/17 06:27:18;;;;;;;2.43;1.30;;;16.80;99.90;;;;;;5015235;28;20528;-53
2021/09/17 06:29:47;;;;;;;4.03;1.17;;;16.80;99.90;;;;;;5014832;28;20439;-52
2021/09/17 06:32:15;;;;;;;3.07;1.07;;;16.30;99.90;;;;;;5014063;28;20824;-52
2021/09/17 06:34:44;;;;;;;8.60;1.83;;;16.80;99.90;;;;;;5014739;28;20420;-52
2021/09/17 06:37:11;;;;;;;3.97;1.10;;;16.90;99.90;;;;;;5014780;28;20528;-52
2021/09/17 06:39:38;;;;;;;8.43;1.50;;;16.80;99.90;;;;;;5013076;28;20982;-53
2021/09/17 06:42:07;;;;;;;2.53;1.10;;;16.90;99.90;;;;;;5014396;28;20791;-53
2021/09/17 06:44:34;;;;;;;3.13;0.90;;;16.90;99.90;;;;;;5013581;28;20445;-53
2021/09/17 06:47:01;;;;;;;2.63;1.10;;;17.00;99.90;;;;;;5014355;28;20516;-52
2021/09/17 06:49:29;;;;;;;2.53;1.20;;;17.10;99.90;;;;;;5015042;22;20592;-51
2021/09/17 06:51:56;;;;;;;1.50;0.90;;;17.10;99.90;;;;;;4977625;28;20458;-51
2021/09/17 06:54:23;;;;;;;5.70;1.33;;;17.20;99.90;;;;;;4977465;28;20455;-50
2021/09/17 06:56:50;;;;;;;3.00;1.20;;;17.20;99.90;;;;;;4995207;28;20433;-51
2021/09/17 06:59:17;;;;;;;7.30;1.10;;;17.20;99.90;;;;;;4977101;28;20488;-50
2021/09/17 07:01:44;;;;;;;6.63;0.93;;;17.20;99.90;;;;;;4995042;28;20443;-50
2021/09/17 07:04:10;;;;;;;3.23;1.00;;;17.30;99.90;;;;;;4995372;28;20982;-50
2021/09/17 07:06:38;;;;;;;3.00;1.20;;;17.30;99.90;;;;;;4994918;28;20534;-52
2021/09/17 07:09:08;;;;;;;6.90;2.23;;;17.30;99.90;;;;;;4976989;28;20837;-51
2021/09/17 07:11:34;;;;;;;2.27;1.00;;;17.30;99.90;;;;;;4995408;28;20454;-51
2021/09/17 07:14:02;;;;;;;4.20;2.07;;;17.40;99.90;;;;;;4995358;28;20643;-51
2021/09/17 07:16:29;;;;;;;4.10;0.80;;;17.40;99.90;;;;;;4995002;28;20850;-51
2021/09/17 07:18:56;;;;;;;5.27;1.60;;;17.40;99.90;;;;;;4994702;28;20454;-51
2021/09/17 07:21:23;;;;;;;1.87;1.03;;;17.40;99.90;;;;;;4994615;28;20805;-50
2021/09/17 07:23:51;;;;;;;3.10;0.97;;;17.40;99.90;;;;;;4994348;28;20482;-51
2021/09/17 07:26:18;;;;;;;1.33;0.90;;;17.50;99.90;;;;;;4994433;28;20792;-51
2021/09/17 07:28:45;;;;;;;3.20;1.47;;;17.50;99.90;;;;;;4994329;28;20557;-51
2021/09/17 07:31:13;;;;;;;3.37;1.40;;;17.50;99.90;;;;;;4994507;28;20522;-50
2021/09/17 07:33:39;;;;;;;3.30;1.30;;;17.60;99.90;;;;;;4994787;28;20622;-50
2021/09/17 07:36:06;;;;;;;2.17;0.93;;;17.60;99.90;;;;;;4994205;28;20468;-50
2021/09/17 07:38:33;;;;;;;2.50;0.83;;;17.60;99.90;;;;;;4976486;28;20471;-51
2021/09/17 07:41:01;;;;;;;2.10;1.30;;;17.60;99.90;;;;;;4994583;28;20454;-52
2021/09/17 07:43:28;;;;;;;4.63;1.90;;;17.60;99.90;;;;;;4994180;28;20517;-51
2021/09/17 07:45:54;;;;;;;2.50;1.10;;;17.60;99.90;;;;;;4976074;28;20449;-51
2021/09/17 07:48:21;;;;;;;2.60;1.03;;;17.70;99.90;;;;;;4993723;28;20565;-51
2021/09/17 07:50:48;;;;;;;5.13;1.80;;;17.70;99.90;;;;;;4976566;28;20460;-51
2021/09/17 07:53:15;;;;;;;6.57;1.70;;;17.80;99.90;;;;;;4976758;28;20448;-51
2021/09/17 07:55:42;;;;;;;4.87;2.33;;;17.90;99.90;;;;;;4994126;28;20539;-51
2021/09/17 07:58:13;;;;;;;2.80;1.10;;;18.00;99.90;;;;;;4993313;28;20493;-51
2021/09/17 08:00:40;;;;;;;2.40;1.00;;;18.10;99.90;;;;;;4994228;28;20435;-51
2021/09/17 08:03:07;;;;;;;9.80;2.10;;;18.20;99.90;;;;;;4994275;28;20525;-50
2021/09/17 08:05:34;;;;;;;2.73;1.27;;;18.20;99.90;;;;;;4994396;28;20459;-50
2021/09/17 08:08:01;;;;;;;3.77;1.00;;;18.20;99.90;;;;;;4993995;28;20542;-52
2021/09/17 08:10:27;;;;;;;2.70;1.10;;;18.20;99.90;;;;;;4994013;28;20527;-51
2021/09/17 08:12:54;;;;;;;2.90;1.00;;;18.20;99.90;;;;;;4976985;28;20546;-51
2021/09/17 08:15:22;;;;;;;3.77;1.30;;;18.30;99.90;;;;;;4994392;28;20531;-51
2021/09/17 08:17:49;;;;;;;1.10;0.83;;;18.30;99.90;;;;;;4975472;28;20544;-50
2021/09/17 08:20:16;;;;;;;2.90;0.80;;;18.40;99.90;;;;;;4994337;28;20464;-51
2021/09/17 08:22:42;;;;;;;2.50;0.90;;;18.40;99.90;;;;;;4993968;28;20478;-51
2021/09/17 08:25:12;;;;;;;2.30;1.00;;;18.40;99.90;;;;;;4994630;28;20439;-51
2021/09/17 08:27:39;;;;;;;7.10;0.90;;;18.40;99.90;;;;;;4993237;28;20415;-51
2021/09/17 08:30:08;;;;;;;1.60;1.20;;;18.40;99.90;;;;;;4993928;28;20511;-50
2021/09/17 08:32:38;;;;;;;2.20;1.13;;;18.50;99.90;;;;;;4993470;28;20436;-50
2021/09/17 08:35:08;;;;;;;1.63;1.13;;;18.40;99.90;;;;;;4993987;28;20456;-51
2021/09/17 08:37:39;;;;;;;2.30;0.73;;;18.70;99.90;;;;;;4993190;28;20493;-51
2021/09/17 08:40:12;;;;;;;5.13;0.90;;;18.80;99.90;;;;;;4976081;28;20543;-51
2021/09/17 08:42:39;;;;;;;1.90;1.03;;;18.80;99.90;;;;;;4974670;28;20456;-52
2021/09/17 08:45:08;;;;;;;1.70;1.10;;;18.90;99.90;;;;;;4993319;28;20461;-51
2021/09/17 08:47:36;;;;;;;2.67;1.10;;;19.00;99.90;;;;;;4993043;28;20476;-52
2021/09/17 08:50:07;;;;;;;1.93;0.80;;;19.10;99.90;;;;;;4992557;28;20445;-51
2021/09/17 08:52:34;;;;;;;5.43;1.20;;;19.10;99.90;;;;;;4992204;28;20519;-51
2021/09/17 08:55:03;;;;;;;3.90;2.13;;;19.20;99.90;;;;;;4992343;28;20863;-50
2021/09/17 08:57:29;;;;;;;6.00;3.90;;;19.30;99.90;;;;;;4992184;28;20444;-52
2021/09/17 08:59:56;;;;;;;2.63;1.70;;;19.40;99.90;;;;;;4974156;28;20468;-51
2021/09/17 09:02:25;;;;;;;2.07;0.87;;;19.40;99.90;;;;;;4991954;28;20476;-50
2021/09/17 09:05:01;;;;;;;1.37;0.80;;;19.40;99.90;;;;;;4992178;28;20521;-51
2021/09/17 09:07:30;;;;;;;1.33;0.73;;;19.40;99.90;;;;;;4991951;28;20850;-51
2021/09/17 09:10:05;;;;;;;3.23;0.87;;;19.40;99.90;;;;;;4991926;28;20468;-50
2021/09/17 09:12:32;;;;;;;2.07;0.90;;;19.40;99.90;;;;;;4974549;28;20493;-51
2021/09/17 09:15:12;;;;;;;2.50;0.63;;;19.30;99.90;;;;;;4974380;28;20519;-51
2021/09/17 09:17:39;;;;;;;6.90;0.87;;;19.40;99.90;;;;;;4991945;28;20528;-52
2021/09/17 09:20:21;;;;;;;5.47;0.70;;;19.30;99.90;;;;;;4974538;28;20456;-50
2021/09/17 09:23:07;;;;;;;1.80;0.87;;;19.30;99.90;;;;;;4992173;28;20529;-51
2021/09/17 09:25:34;;;;;;;4.87;1.10;;;19.30;99.90;;;;;;4992042;28;20471;-51
2021/09/17 09:28:12;;;;;;;2.90;1.60;;;19.30;99.90;;;;;;4991662;28;20457;-51
2021/09/17 09:30:41;;;;;;;3.03;0.83;;;19.40;99.90;;;;;;4991632;28;20541;-51
2021/09/17 09:33:37;;;;;;;3.47;1.30;;;19.40;99.90;;;;;;4991655;28;20536;-51
2021/09/17 09:36:07;;;;;;;4.37;0.83;;;19.50;99.90;;;;;;4991914;28;20430;-52
2021/09/17 09:38:40;;;;;;;3.30;1.00;;;19.50;99.90;;;;;;4991804;28;20687;-52
2021/09/17 09:41:09;;;;;;;3.30;2.40;;;19.60;99.90;;;;;;4992058;28;20430;-51
2021/09/17 09:43:38;;;;;;;3.40;1.13;;;19.60;99.90;;;;;;4991534;28;20524;-51
2021/09/17 09:46:21;;;;;;;1.33;0.80;;;19.40;99.90;;;;;;4991981;28;20433;-51
2021/09/17 09:49:06;;;;;;;2.93;0.90;;;19.40;99.90;;;;;;4954293;28;1086853;-51
2021/09/17 09:51:36;;;;;;;2.30;1.03;;;19.30;99.90;;;;;;4974874;28;20994;-51
2021/09/17 09:54:05;;;;;;;5.43;1.20;;;19.20;99.90;;;;;;4974773;28;20464;-50
2021/09/17 09:56:33;;;;;;;1.43;0.80;;;19.20;99.90;;;;;;4975087;28;20946;-51
2021/09/17 09:59:03;;;;;;;4.70;1.27;;;19.20;99.90;;;;;;4991902;28;20457;-51
2021/09/17 10:01:31;;;;;;;2.70;1.50;;;19.20;99.90;;;;;;4974479;28;20503;-50
2021/09/17 10:03:59;;;;;;;1.50;0.93;;;19.30;99.90;;;;;;4993593;28;20482;-51
2021/09/17 10:06:27;;;;;;;2.13;1.00;;;19.30;99.90;;;;;;4993196;28;20996;-51
2021/09/17 10:08:56;;;;;;;1.37;0.97;;;19.30;99.90;;;;;;4991573;28;20549;-51
2021/09/17 10:11:24;;;;;;;2.90;1.40;;;19.40;99.90;;;;;;4992463;28;20437;-51
2021/09/17 10:13:54;;;;;;;1.60;0.90;;;19.50;99.90;;;;;;4992812;28;20430;-51
2021/09/17 10:16:24;;;;;;;1.93;0.80;;;19.60;99.90;;;;;;4992086;28;20449;-51
2021/09/17 10:18:51;;;;;;;1.40;0.87;;;19.70;99.90;;;;;;4991944;28;20540;-51
2021/09/17 10:21:50;;;;;;;1.83;0.73;;;19.70;99.90;;;;;;4992272;28;20511;-51
2021/09/17 10:24:37;;;;;;;2.87;0.80;;;19.80;99.90;;;;;;4992822;28;20891;-51
2021/09/17 10:27:07;;;;;;;2.93;1.00;;;19.80;99.90;;;;;;4991933;28;20470;-51
2021/09/17 10:29:35;;;;;;;4.27;1.60;;;19.80;99.90;;;;;;4991216;28;20549;-51
2021/09/17 10:32:02;;;;;;;4.00;1.03;;;19.80;99.90;;;;;;4992449;28;20519;-54
2021/09/17 10:34:31;;;;;;;4.00;0.97;;;19.80;99.90;;;;;;4992615;28;20434;-51
2021/09/17 10:36:58;;;;;;;3.93;1.33;;;19.60;99.90;;;;;;4992041;28;20876;-53
2021/09/17 10:39:25;;;;;;;4.60;0.70;;;19.50;99.90;;;;;;4991757;28;20457;-51
2021/09/17 10:42:12;;;;;;;2.50;0.97;;;19.40;99.90;;;;;;4991849;28;20978;-53
2021/09/17 10:45:17;;;;;;;2.97;1.67;;;19.40;99.90;;;;;;4991615;28;20538;-51
2021/09/17 10:47:58;;;;;;;1.50;0.70;;;19.30;99.90;;;;;;4991394;28;20525;-52
2021/09/17 10:50:38;;;;;;;1.73;0.80;;;19.20;99.90;;;;;;4991262;28;20543;-50
2021/09/17 10:53:05;;;;;;;1.10;0.60;;;19.10;99.90;;;;;;4973982;28;20615;-52
2021/09/17 10:56:02;;;;;;;2.10;1.00;;;19.10;99.90;;;;;;4991669;28;20433;-51
2021/09/17 10:58:31;;;;;;;16.57;10.30;;;19.20;99.90;;;;;;4973272;28;20473;-51
2021/09/17 11:01:01;;;;;;;3.17;1.20;;;19.20;99.90;;;;;;4991748;28;20491;-50
2021/09/17 11:04:06;;;;;;;3.30;0.97;;;19.40;99.90;;;;;;4991823;28;20516;-50
2021/09/17 11:06:33;;;;;;;2.17;0.97;;;19.50;99.90;;;;;;4971711;28;20543;-51
2021/09/17 11:09:01;;;;;;;3.73;1.53;;;19.60;99.90;;;;;;4977136;28;20469;-56
2021/09/17 11:11:29;;;;;;;1.73;1.10;;;19.80;99.90;;;;;;4995174;28;20533;-51
2021/09/17 11:13:59;;;;;;;1.57;0.80;;;19.90;99.90;;;;;;4995026;28;20998;-51
2021/09/17 11:16:27;;;;;;;2.90;0.80;;;19.90;99.90;;;;;;4995440;28;20437;-51
2021/09/17 11:18:57;;;;;;;2.50;0.80;;;19.90;99.90;;;;;;4995610;28;20493;-51
2021/09/17 11:21:24;;;;;;;5.30;1.20;;;19.90;99.90;;;;;;4996333;28;20801;-51
2021/09/17 11:23:52;;;;;;;1.67;0.93;;;19.90;99.90;;;;;;4977520;28;20527;-51
2021/09/17 11:26:20;;;;;;;1.93;0.80;;;19.90;99.90;;;;;;4994909;28;20831;-51
2021/09/17 11:29:03;;;;;;;4.40;2.13;;;19.90;99.90;;;;;;4994502;28;20540;-51
2021/09/17 11:31:34;;;;;;;2.00;1.00;;;20.00;99.80;;;;;;4995042;28;20927;-52
2021/09/17 11:34:04;;;;;;;3.43;2.23;;;20.00;99.80;;;;;;4994801;28;20894;-52
2021/09/17 11:36:36;;;;;;;1.47;0.60;;;20.10;99.60;;;;;;4994469;28;20511;-53
2021/09/17 11:39:18;;;;;;;1.03;0.70;;;20.10;99.40;;;;;;4994027;28;20457;-50
2021/09/17 11:41:46;;;;;;;1.40;0.83;;;20.10;99.00;;;;;;4977188;28;20515;-51
2021/09/17 11:44:30;;;;;;;4.47;2.23;;;20.10;99.20;;;;;;4976800;28;20471;-52
2021/09/17 11:47:00;;;;;;;3.27;1.30;;;20.20;99.10;;;;;;4976538;28;20459;-51
2021/09/17 11:49:27;;;;;;;3.53;1.40;;;20.10;99.20;;;;;;4993376;28;20477;-51
2021/09/17 11:51:58;;;;;;;1.50;1.00;;;20.10;99.10;;;;;;4976286;28;20462;-52
2021/09/17 11:54:25;;;;;;;2.07;1.20;;;20.10;99.10;;;;;;4994033;28;20978;-50
2021/09/17 11:57:06;;;;;;;1.43;1.10;;;20.00;99.20;;;;;;4993844;28;20457;-51
2021/09/17 11:59:40;;;;;;;3.03;1.03;;;20.00;99.10;;;;;;4993891;28;20460;-50
2021/09/17 12:02:15;;;;;;;2.30;0.60;;;19.90;98.90;;;;;;4994420;28;20433;-51
2021/09/17 12:04:44;;;;;;;1.60;1.00;;;19.90;98.80;;;;;;4976514;28;20468;-51
2021/09/17 12:07:11;;;;;;;4.80;1.70;;;19.80;99.00;;;;;;4994286;28;20430;-52
2021/09/17 12:09:38;;;;;;;1.30;0.93;;;19.80;99.10;;;;;;4993747;28;20884;-51
2021/09/17 12:12:05;;;;;;;1.77;1.10;;;19.80;99.10;;;;;;4994244;28;20521;-51
2021/09/17 12:14:34;;;;;;;1.97;1.20;;;19.80;99.10;;;;;;4994078;28;20451;-51
2021/09/17 12:17:08;;;;;;;3.67;1.10;;;19.70;98.70;;;;;;4992922;28;20504;-52
2021/09/17 12:19:57;;;;;;;1.57;0.90;;;19.80;98.70;;;;;;4976101;28;20525;-50
2021/09/17 12:22:36;;;;;;;1.70;0.90;;;19.80;98.30;;;;;;4993855;28;20471;-51
2021/09/17 12:25:09;;;;;;;2.17;0.80;;;19.90;98.20;;;;;;4993550;28;20924;-51
2021/09/17 12:27:38;;;;;;;1.70;1.40;;;19.80;97.70;;;;;;4975945;28;20545;-51
2021/09/17 12:30:08;;;;;;;1.50;0.80;;;19.80;97.90;;;;;;4993720;28;20450;-51
2021/09/17 12:32:36;;;;;;;1.10;0.70;;;19.80;97.80;;;;;;4994091;28;20447;-51
2021/09/17 12:35:10;;;;;;;1.30;0.70;;;19.80;97.80;;;;;;4995684;28;20438;-50
2021/09/17 12:37:37;;;;;;;2.10;1.17;;;19.90;97.50;;;;;;4994622;28;20855;-51
2021/09/17 12:40:19;;;;;;;2.40;1.00;;;19.80;97.50;;;;;;4975524;28;20462;-51
2021/09/17 12:42:57;;;;;;;3.13;1.50;;;19.90;97.10;;;;;;4993958;28;20535;-51
2021/09/17 12:45:24;;;;;;;1.83;0.80;;;19.90;97.40;;;;;;4993308;28;20485;-54
2021/09/17 12:47:54;;;;;;;2.30;1.20;;;19.90;97.40;;;;;;5017236;23;20448;-51
2021/09/17 12:50:28;;;;;;;1.90;1.10;;;20.00;97.10;;;;;;5031474;28;20815;-52
2021/09/17 12:52:55;;;;;;;1.30;0.70;;;20.00;97.50;;;;;;5013998;28;20451;-52
2021/09/17 12:55:23;;;;;;;4.07;1.10;;;20.00;97.10;;;;;;5031946;28;20878;-52